Time;durP1;ratioP1;P1;durP2;ratioP2;P2;SDS_P1;SDS_P2;PMS_P1;PMS_P2;Temp;Humidity;BMP_temperature;BMP_pressure;BME280_temperature;BME280_humidity;BME280_pressure;Samples;Min_cycle;Max_cycle;Signal;HPM_P1;HPM_P2
2022/11/15 00:01:12;;;;;;;8.50;7.70;;;8.60;45.60;;;;;;10386570;28;20221;-70
2022/11/15 00:06:17;;;;;;;8.03;7.23;;;8.60;45.70;;;;;;10384235;28;20263;-70
2022/11/15 00:11:20;;;;;;;7.17;6.47;;;8.50;45.60;;;;;;10391827;28;20279;-70
2022/11/15 00:16:23;;;;;;;8.20;7.43;;;8.50;45.60;;;;;;10390410;28;20240;-70
2022/11/15 00:21:28;;;;;;;9.33;7.07;;;8.50;45.60;;;;;;10390359;28;20736;-70
2022/11/15 00:26:31;;;;;;;7.10;6.47;;;8.50;45.50;;;;;;10386427;28;20251;-70
2022/11/15 00:31:34;;;;;;;7.40;6.70;;;8.40;45.50;;;;;;10381028;28;20702;-74
2022/11/15 00:36:39;;;;;;;7.03;6.43;;;8.50;45.40;;;;;;10381106;28;20233;-69
2022/11/15 00:41:42;;;;;;;7.37;6.77;;;8.40;45.10;;;;;;10382617;28;20226;-69
2022/11/15 00:46:45;;;;;;;7.80;7.10;;;8.40;45.10;;;;;;10383434;28;20800;-68
2022/11/15 00:51:49;;;;;;;7.83;7.23;;;8.40;45.10;;;;;;10388444;28;20234;-68
2022/11/15 00:56:52;;;;;;;8.37;7.67;;;8.40;44.90;;;;;;10380344;28;20230;-69
2022/11/15 01:01:56;;;;;;;6.83;6.23;;;8.30;44.80;;;;;;10383111;28;20650;-69
2022/11/15 01:07:00;;;;;;;7.40;6.70;;;8.20;44.70;;;;;;10383266;28;20729;-69
2022/11/15 01:12:04;;;;;;;6.90;6.20;;;8.20;44.70;;;;;;10383026;28;20633;-69
2022/11/15 01:17:07;;;;;;;8.30;7.50;;;8.20;45.00;;;;;;10381561;28;20586;-69
2022/11/15 01:22:11;;;;;;;7.77;7.00;;;8.10;44.80;;;;;;10385868;28;20583;-70
2022/11/15 01:27:14;;;;;;;6.57;6.07;;;8.10;44.80;;;;;;10384034;28;20226;-69
2022/11/15 01:32:18;;;;;;;6.87;6.27;;;8.00;44.80;;;;;;10379947;28;20230;-69
2022/11/15 01:37:22;;;;;;;7.17;6.50;;;8.00;44.70;;;;;;10380082;28;20706;-69
2022/11/15 01:42:25;;;;;;;5.97;5.43;;;8.00;44.40;;;;;;10382023;28;20229;-70
2022/11/15 01:47:32;;;;;;;6.93;6.23;;;7.90;44.50;;;;;;10381563;28;20225;-70
2022/11/15 01:52:38;;;;;;;5.47;4.97;;;7.90;44.50;;;;;;10380520;28;20913;-69
2022/11/15 01:57:43;;;;;;;6.50;5.90;;;7.80;44.60;;;;;;10377222;28;20230;-69
2022/11/15 02:02:47;;;;;;;6.33;5.73;;;7.80;44.60;;;;;;10383741;28;20236;-69
2022/11/15 02:07:52;;;;;;;6.13;5.63;;;7.80;44.70;;;;;;10382527;28;20241;-67
2022/11/15 02:12:57;;;;;;;5.77;5.27;;;7.80;44.60;;;;;;10380544;28;20227;-67
2022/11/15 02:18:11;;;;;;;5.87;5.37;;;7.80;44.60;;;;;;10383188;28;20269;-69
2022/11/15 02:23:51;;;;;;;5.83;5.33;;;7.80;44.50;;;;;;10377876;28;20232;-69
2022/11/15 02:29:02;;;;;;;5.73;5.23;;;7.80;44.40;;;;;;10379414;28;20654;-69
2022/11/15 02:34:18;;;;;;;6.00;5.50;;;7.80;44.20;;;;;;10377939;28;20226;-69
2022/11/15 02:39:28;;;;;;;5.97;5.47;;;7.70;44.10;;;;;;10373819;28;20225;-69
2022/11/15 02:44:37;;;;;;;6.07;5.57;;;7.70;44.20;;;;;;10377206;28;20240;-70
2022/11/15 02:49:46;;;;;;;6.50;6.00;;;7.70;44.00;;;;;;10375937;28;20245;-70
2022/11/15 02:54:55;;;;;;;5.90;5.40;;;7.70;43.90;;;;;;10381046;28;20230;-69
2022/11/15 03:00:05;;;;;;;5.30;4.70;;;7.60;43.70;;;;;;10378360;28;20237;-67
2022/11/15 03:05:18;;;;;;;6.07;5.50;;;7.50;43.90;;;;;;10380438;28;20698;-67
2022/11/15 03:10:26;;;;;;;5.30;4.87;;;7.50;44.10;;;;;;10374852;28;20229;-67
2022/11/15 03:15:32;;;;;;;4.97;4.57;;;7.40;44.10;;;;;;10377611;28;20288;-71
2022/11/15 03:20:38;;;;;;;5.33;4.83;;;7.40;44.20;;;;;;10377605;28;20236;-71
2022/11/15 03:25:44;;;;;;;5.47;4.97;;;7.40;44.40;;;;;;10376724;28;20241;-71
2022/11/15 03:30:50;;;;;;;5.23;4.83;;;7.40;44.40;;;;;;10379639;28;20662;-72
2022/11/15 03:35:56;;;;;;;4.90;4.50;;;7.30;44.20;;;;;;10376904;28;20230;-68
2022/11/15 03:41:02;;;;;;;4.70;4.30;;;7.30;44.80;;;;;;10385254;28;20236;-70
2022/11/15 03:46:12;;;;;;;4.37;4.07;;;7.30;44.10;;;;;;10384339;28;20234;-70
2022/11/15 03:51:17;;;;;;;4.53;4.13;;;7.30;44.10;;;;;;10384290;28;20238;-70
2022/11/15 03:56:20;;;;;;;5.50;5.00;;;7.20;44.10;;;;;;10383342;28;20722;-70
2022/11/15 04:01:23;;;;;;;5.30;4.90;;;7.20;44.20;;;;;;10378442;28;20226;-70
2022/11/15 04:06:27;;;;;;;5.53;5.03;;;7.10;44.10;;;;;;10405409;28;20229;-75
2022/11/15 04:11:31;;;;;;;4.90;4.50;;;7.10;44.10;;;;;;10402096;28;20234;-75
2022/11/15 04:16:34;;;;;;;4.53;4.23;;;7.00;44.40;;;;;;10396119;28;20230;-70
2022/11/15 04:27:06;;;;;;;5.27;4.77;;;7.00;44.40;;;;;;10387355;28;20698;-70
2022/11/15 04:32:09;;;;;;;4.60;4.20;;;7.00;44.10;;;;;;10394497;28;20229;-75
2022/11/15 04:37:15;;;;;;;5.27;4.57;;;7.00;44.10;;;;;;10402983;28;20264;-76
2022/11/15 04:42:19;;;;;;;5.00;4.50;;;7.00;44.00;;;;;;10377738;28;20236;-71
2022/11/15 04:47:22;;;;;;;4.20;3.90;;;7.00;44.10;;;;;;10386521;28;20233;-70
2022/11/15 04:52:26;;;;;;;5.10;4.70;;;6.90;44.10;;;;;;10380217;28;20705;-72
2022/11/15 04:57:30;;;;;;;5.23;4.83;;;6.90;44.10;;;;;;10384616;28;20236;-71
2022/11/15 05:07:51;;;;;;;5.63;5.07;;;6.90;44.10;;;;;;10403427;28;20236;-76
2022/11/15 05:12:55;;;;;;;5.13;4.63;;;6.80;44.00;;;;;;10389605;28;20725;-70
2022/11/15 05:18:01;;;;;;;6.03;5.43;;;6.80;44.20;;;;;;10383253;28;20635;-76
2022/11/15 05:23:05;;;;;;;6.73;6.13;;;6.80;44.20;;;;;;10382017;28;20221;-69
2022/11/15 05:28:09;;;;;;;5.90;5.37;;;6.80;44.20;;;;;;10381200;28;20771;-68
2022/11/15 05:33:12;;;;;;;6.67;5.37;;;6.80;44.20;;;;;;10386182;28;20232;-68
2022/11/15 05:38:17;;;;;;;6.53;5.90;;;6.70;44.10;;;;;;10380121;28;20221;-71
2022/11/15 05:43:20;;;;;;;6.67;5.57;;;6.70;44.10;;;;;;10377141;28;20222;-71
2022/11/15 05:48:23;;;;;;;6.47;5.87;;;6.70;44.10;;;;;;10377697;28;20234;-71
2022/11/15 05:53:28;;;;;;;5.90;5.40;;;6.60;44.10;;;;;;10378416;28;20242;-71
2022/11/15 05:58:32;;;;;;;6.40;5.90;;;6.60;44.00;;;;;;10377306;28;20787;-72
2022/11/15 06:03:38;;;;;;;7.63;6.43;;;6.50;44.30;;;;;;10383908;28;20241;-72
2022/11/15 06:08:43;;;;;;;6.43;5.80;;;6.50;44.30;;;;;;10382459;28;20237;-71
2022/11/15 06:13:46;;;;;;;5.53;5.00;;;6.50;44.40;;;;;;10388902;28;20236;-69
2022/11/15 06:18:49;;;;;;;6.90;6.17;;;6.50;44.40;;;;;;10374074;28;20742;-69
2022/11/15 06:23:54;;;;;;;7.27;6.57;;;6.50;44.40;;;;;;10377595;28;20236;-68
2022/11/15 06:28:57;;;;;;;7.27;6.57;;;6.50;44.90;;;;;;10379159;28;20218;-68
2022/11/15 06:34:00;;;;;;;6.33;5.70;;;6.60;44.70;;;;;;10379620;28;20238;-68
2022/11/15 06:39:05;;;;;;;6.27;5.67;;;6.60;44.60;;;;;;10385296;28;21043;-69
2022/11/15 06:44:09;;;;;;;5.33;4.83;;;6.60;44.10;;;;;;10382021;28;20757;-68
2022/11/15 06:49:15;;;;;;;5.73;5.07;;;6.60;44.20;;;;;;10377337;28;20226;-68
2022/11/15 06:54:20;;;;;;;5.60;5.10;;;6.60;44.00;;;;;;10376837;28;20241;-68
2022/11/15 06:59:23;;;;;;;5.43;4.83;;;6.60;44.00;;;;;;10377872;28;20232;-68
2022/11/15 07:04:26;;;;;;;5.50;5.00;;;6.60;44.00;;;;;;10379304;28;20225;-69
2022/11/15 07:09:31;;;;;;;6.17;5.67;;;6.50;44.00;;;;;;10377091;28;20272;-69
2022/11/15 07:14:34;;;;;;;5.73;5.23;;;6.50;44.30;;;;;;10388362;28;20636;-69
2022/11/15 07:19:37;;;;;;;6.10;5.07;;;6.50;44.40;;;;;;10386425;28;20221;-68
2022/11/15 07:24:42;;;;;;;5.97;5.47;;;6.50;44.60;;;;;;10383381;28;20272;-68
2022/11/15 07:29:45;;;;;;;7.93;7.17;;;6.60;44.90;;;;;;10383791;28;20619;-68
2022/11/15 07:34:48;;;;;;;7.33;6.63;;;6.60;45.00;;;;;;10383397;28;20237;-68
2022/11/15 07:39:53;;;;;;;7.90;7.20;;;6.70;45.30;;;;;;10384132;28;20288;-67
2022/11/15 07:44:56;;;;;;;7.77;6.97;;;6.70;45.50;;;;;;10385296;28;20252;-70
2022/11/15 07:49:59;;;;;;;9.20;6.07;;;6.80;46.30;;;;;;10382162;28;20234;-70
2022/11/15 07:55:03;;;;;;;6.70;5.80;;;6.90;45.90;;;;;;10385083;28;20279;-70
2022/11/15 08:00:08;;;;;;;7.67;6.50;;;7.10;46.10;;;;;;10385657;28;20261;-69
2022/11/15 08:05:11;;;;;;;7.13;6.50;;;7.20;46.20;;;;;;10386960;28;20288;-69
2022/11/15 08:10:18;;;;;;;7.27;6.67;;;7.30;46.20;;;;;;10374415;28;20234;-69
2022/11/15 08:15:21;;;;;;;7.20;6.50;;;7.50;46.50;;;;;;10381989;28;20249;-69
2022/11/15 08:20:28;;;;;;;7.33;6.63;;;7.70;46.80;;;;;;10383636;28;20245;-69
2022/11/15 08:25:34;;;;;;;6.57;5.97;;;7.80;47.10;;;;;;10377731;28;20230;-69
2022/11/15 08:30:41;;;;;;;9.53;8.03;;;8.10;47.20;;;;;;10377178;28;20237;-69
2022/11/15 08:35:45;;;;;;;9.20;8.30;;;8.30;47.20;;;;;;10378753;28;20773;-70
2022/11/15 08:40:49;;;;;;;8.67;7.77;;;8.50;47.10;;;;;;10379834;28;20645;-70
2022/11/15 08:45:52;;;;;;;8.07;7.27;;;8.60;47.20;;;;;;10383774;28;20226;-70
2022/11/15 08:50:57;;;;;;;7.20;6.53;;;8.80;47.00;;;;;;10380858;28;20233;-70
2022/11/15 08:56:01;;;;;;;7.93;5.70;;;9.00;47.00;;;;;;10376539;28;20604;-70
2022/11/15 09:01:05;;;;;;;5.93;5.37;;;9.20;47.00;;;;;;10382468;28;20225;-70
2022/11/15 09:06:09;;;;;;;6.07;5.57;;;9.30;47.10;;;;;;10379607;28;20612;-70
2022/11/15 09:11:14;;;;;;;6.17;5.57;;;9.50;47.30;;;;;;10383503;28;20229;-70
2022/11/15 09:16:17;;;;;;;6.30;5.70;;;9.70;47.50;;;;;;10385948;28;20282;-71
2022/11/15 09:21:20;;;;;;;5.60;5.10;;;9.90;47.70;;;;;;10381751;28;20585;-71
2022/11/15 09:26:25;;;;;;;5.53;5.13;;;10.20;47.20;;;;;;10374008;28;20229;-71
2022/11/15 09:31:29;;;;;;;6.13;5.63;;;10.40;46.90;;;;;;10383490;28;20248;-71
2022/11/15 09:36:32;;;;;;;5.80;5.30;;;10.70;46.80;;;;;;10379169;28;20404;-71
2022/11/15 09:42:08;;;;;;;6.63;5.83;;;11.00;46.80;;;;;;10367663;28;20653;-71
2022/11/15 09:47:47;;;;;;;6.37;5.77;;;11.30;46.50;;;;;;10373733;28;20230;-68
2022/11/15 09:52:50;;;;;;;7.27;6.67;;;11.50;46.40;;;;;;10373728;28;20226;-68
2022/11/15 09:58:01;;;;;;;7.27;6.57;;;11.80;46.80;;;;;;10372649;28;20233;-68
2022/11/15 10:03:11;;;;;;;7.07;6.47;;;12.00;46.30;;;;;;10386684;28;21095;-68
2022/11/15 10:08:37;;;;;;;7.60;6.90;;;12.20;45.90;;;;;;10378709;28;20229;-71
2022/11/15 10:13:45;;;;;;;7.17;6.57;;;12.40;45.50;;;;;;10379487;28;20233;-71
2022/11/15 10:18:57;;;;;;;7.10;6.50;;;12.60;45.60;;;;;;10383713;28;20226;-71
2022/11/15 10:24:00;;;;;;;7.37;6.77;;;12.70;44.90;;;;;;10374856;28;20280;-71
2022/11/15 10:29:05;;;;;;;7.10;6.50;;;12.90;45.60;;;;;;10381410;28;21035;-71
2022/11/15 10:34:14;;;;;;;7.13;6.50;;;13.00;45.00;;;;;;10383680;28;20230;-71
2022/11/15 10:39:18;;;;;;;6.10;5.60;;;13.00;43.90;;;;;;10373896;28;20237;-71
2022/11/15 10:44:25;;;;;;;6.53;5.93;;;13.10;45.10;;;;;;10383696;28;20728;-70
2022/11/15 10:49:29;;;;;;;6.57;5.97;;;13.20;44.80;;;;;;10380294;28;20225;-71
2022/11/15 10:54:37;;;;;;;6.03;5.53;;;13.40;45.20;;;;;;10373211;28;20310;-70
2022/11/15 10:59:46;;;;;;;6.80;6.20;;;13.60;44.80;;;;;;10376194;28;20217;-70
2022/11/15 11:04:53;;;;;;;6.93;6.37;;;13.70;44.00;;;;;;10371693;28;20229;-70
2022/11/15 11:10:01;;;;;;;6.90;6.30;;;13.80;44.10;;;;;;10380402;28;20665;-75
2022/11/15 11:15:13;;;;;;;6.50;5.90;;;14.00;44.40;;;;;;10374534;28;20222;-75
2022/11/15 11:20:23;;;;;;;6.23;5.67;;;14.10;44.40;;;;;;10375816;28;20222;-75
2022/11/15 11:25:35;;;;;;;5.70;5.20;;;14.30;44.00;;;;;;10371881;28;20242;-75
2022/11/15 11:30:48;;;;;;;5.83;5.23;;;14.40;44.00;;;;;;10371504;28;20625;-75
2022/11/15 11:36:00;;;;;;;5.47;4.97;;;14.60;44.00;;;;;;10373724;28;20590;-75
2022/11/15 11:41:15;;;;;;;5.70;5.20;;;14.70;44.10;;;;;;10377325;28;20218;-75
2022/11/15 11:46:56;;;;;;;6.00;5.40;;;14.80;44.20;;;;;;10377532;28;20238;-75
2022/11/15 11:52:05;;;;;;;5.30;4.90;;;14.90;43.70;;;;;;10357900;28;20706;-75
2022/11/15 11:57:16;;;;;;;5.13;4.67;;;15.00;43.70;;;;;;10385298;28;20236;-70
2022/11/15 12:02:27;;;;;;;4.13;3.73;;;15.10;43.70;;;;;;10383847;28;20629;-71
2022/11/15 12:07:35;;;;;;;4.43;3.70;;;15.20;43.00;;;;;;10378542;28;20263;-70
2022/11/15 12:12:48;;;;;;;3.77;3.43;;;15.40;43.10;;;;;;10382720;28;20236;-67
2022/11/15 12:17:55;;;;;;;3.33;3.03;;;15.50;42.50;;;;;;10382077;28;20277;-67
2022/11/15 12:23:01;;;;;;;4.30;4.00;;;15.60;42.80;;;;;;10380674;28;20226;-68
2022/11/15 12:28:12;;;;;;;3.60;3.30;;;15.80;42.90;;;;;;10377490;28;20225;-68
2022/11/15 12:33:38;;;;;;;3.90;3.60;;;15.90;41.40;;;;;;10371530;28;20238;-67
2022/11/15 12:38:58;;;;;;;3.30;3.00;;;16.00;41.60;;;;;;10377839;28;20238;-68
2022/11/15 12:44:02;;;;;;;4.13;3.67;;;16.10;41.10;;;;;;10371994;28;20226;-68
2022/11/15 12:49:12;;;;;;;5.47;3.37;;;16.20;42.30;;;;;;10380674;28;20232;-68
2022/11/15 12:54:52;;;;;;;3.30;3.10;;;16.30;40.70;;;;;;10380334;28;20238;-67
2022/11/15 13:00:01;;;;;;;4.33;4.03;;;16.30;40.90;;;;;;10376903;28;20225;-68
2022/11/15 13:05:45;;;;;;;4.10;3.80;;;16.30;41.30;;;;;;10381637;28;20218;-69
2022/11/15 13:10:50;;;;;;;4.00;3.70;;;16.40;40.50;;;;;;10342642;28;20229;-68
2022/11/15 13:15:56;;;;;;;3.87;3.50;;;16.50;41.10;;;;;;10378989;28;20257;-70
2022/11/15 13:21:00;;;;;;;4.27;3.97;;;16.50;40.90;;;;;;10382960;28;20735;-71
2022/11/15 13:26:16;;;;;;;4.17;3.83;;;16.60;41.40;;;;;;10376385;28;20232;-71
2022/11/15 13:31:27;;;;;;;4.30;4.00;;;16.60;39.70;;;;;;10378862;28;20222;-71
2022/11/15 13:36:34;;;;;;;4.20;3.90;;;16.70;40.00;;;;;;10381915;28;20242;-70
2022/11/15 13:41:47;;;;;;;4.07;3.77;;;16.70;40.50;;;;;;10379572;28;20233;-68
2022/11/15 13:47:01;;;;;;;4.60;4.20;;;16.70;39.70;;;;;;10377668;28;20281;-68
2022/11/15 13:52:07;;;;;;;4.80;4.40;;;16.70;41.00;;;;;;10380610;28;20226;-68
2022/11/15 13:57:17;;;;;;;5.13;4.73;;;16.80;40.90;;;;;;10371092;28;20241;-68
2022/11/15 14:02:25;;;;;;;4.70;4.30;;;16.80;39.80;;;;;;10379601;28;20261;-68
2022/11/15 14:07:30;;;;;;;4.30;4.00;;;16.80;40.60;;;;;;10384436;28;20245;-67
2022/11/15 14:12:36;;;;;;;4.97;4.57;;;16.70;40.70;;;;;;10383831;28;20325;-67
2022/11/15 14:17:40;;;;;;;5.10;4.70;;;16.80;40.30;;;;;;10381251;28;20230;-67
2022/11/15 14:22:54;;;;;;;6.00;5.43;;;16.70;40.70;;;;;;10384230;28;20236;-67
2022/11/15 14:28:28;;;;;;;4.30;4.00;;;16.70;39.80;;;;;;10382370;28;20232;-68
2022/11/15 14:33:34;;;;;;;7.43;6.77;;;16.60;40.10;;;;;;10374284;28;20634;-67
2022/11/15 14:38:37;;;;;;;7.70;7.00;;;16.60;40.60;;;;;;10376812;28;20291;-67
2022/11/15 14:43:41;;;;;;;13.40;12.10;;;16.50;40.90;;;;;;10374320;28;20245;-67
2022/11/15 14:48:45;;;;;;;6.10;5.50;;;16.50;40.80;;;;;;10377816;28;20225;-66
2022/11/15 14:53:48;;;;;;;5.60;4.90;;;16.30;40.80;;;;;;10377022;28;20749;-68
2022/11/15 14:58:54;;;;;;;4.80;4.40;;;16.30;41.10;;;;;;10377863;28;20291;-68
2022/11/15 15:03:58;;;;;;;4.97;4.20;;;16.20;40.70;;;;;;10375586;28;20226;-70
2022/11/15 15:09:01;;;;;;;5.90;5.30;;;16.10;40.70;;;;;;10375452;28;20221;-70
2022/11/15 15:14:06;;;;;;;5.40;4.87;;;16.00;40.60;;;;;;10382325;28;20234;-75
2022/11/15 15:19:09;;;;;;;5.17;4.67;;;15.80;40.50;;;;;;10376993;28;20597;-74
2022/11/15 15:24:15;;;;;;;5.83;5.33;;;15.60;40.70;;;;;;10378456;28;20230;-75
2022/11/15 15:29:20;;;;;;;4.83;4.30;;;15.50;40.60;;;;;;10372647;28;20225;-75
2022/11/15 15:34:23;;;;;;;4.63;4.23;;;15.40;40.80;;;;;;10384282;28;20721;-75
2022/11/15 15:39:26;;;;;;;5.37;4.97;;;15.30;40.90;;;;;;10385149;28;20776;-75
2022/11/15 15:44:31;;;;;;;11.47;9.80;;;15.10;40.80;;;;;;10393578;28;20234;-75
2022/11/15 15:49:34;;;;;;;10.73;9.63;;;15.00;40.80;;;;;;10383607;28;20849;-76
2022/11/15 15:54:37;;;;;;;17.20;15.20;;;14.80;40.90;;;;;;10384859;28;20229;-75
2022/11/15 15:59:42;;;;;;;17.57;13.70;;;14.60;41.00;;;;;;10384697;28;20225;-75
2022/11/15 16:04:45;;;;;;;13.83;12.27;;;14.50;40.90;;;;;;10387620;28;20221;-75
2022/11/15 16:10:03;;;;;;;15.30;13.70;;;14.40;40.90;;;;;;10381486;28;20240;-75
2022/11/15 16:15:09;;;;;;;15.10;13.63;;;14.20;41.00;;;;;;10381542;28;20230;-75
2022/11/15 16:20:24;;;;;;;15.03;13.53;;;14.10;40.80;;;;;;10387483;28;20246;-75
2022/11/15 16:25:27;;;;;;;14.27;12.97;;;13.90;40.80;;;;;;10383077;28;20241;-75
2022/11/15 16:30:33;;;;;;;12.00;10.90;;;13.80;41.10;;;;;;10382329;28;20226;-75
2022/11/15 16:35:36;;;;;;;15.77;14.23;;;13.70;41.10;;;;;;10386261;28;20234;-75
2022/11/15 16:40:39;;;;;;;17.87;16.03;;;13.60;41.10;;;;;;10379999;28;20275;-75
2022/11/15 16:45:44;;;;;;;14.17;12.67;;;13.50;41.20;;;;;;10382719;28;20234;-75
2022/11/15 16:50:47;;;;;;;13.93;12.53;;;13.50;41.20;;;;;;10380987;28;20230;-75
2022/11/15 16:55:50;;;;;;;15.13;11.00;;;13.40;41.20;;;;;;10376009;28;20261;-77
2022/11/15 17:00:56;;;;;;;13.23;12.03;;;13.30;40.90;;;;;;10380482;28;20226;-75
2022/11/15 17:05:59;;;;;;;12.17;10.87;;;13.20;40.90;;;;;;10379371;28;20580;-75
2022/11/15 17:11:05;;;;;;;18.93;17.03;;;13.10;40.90;;;;;;10384192;28;20225;-74
2022/11/15 17:16:12;;;;;;;20.60;18.60;;;13.00;41.00;;;;;;10383005;28;20273;-75
2022/11/15 17:21:17;;;;;;;15.10;13.47;;;12.90;41.00;;;;;;10380642;28;20218;-75
2022/11/15 17:26:21;;;;;;;14.70;12.97;;;12.90;41.30;;;;;;10379391;28;20669;-74
2022/11/15 17:31:34;;;;;;;12.67;11.37;;;12.80;41.50;;;;;;10380823;28;20219;-75
2022/11/15 17:36:37;;;;;;;17.87;14.63;;;12.80;41.40;;;;;;10380959;28;20230;-75
2022/11/15 17:41:40;;;;;;;15.00;13.53;;;12.80;41.50;;;;;;10375082;28;20740;-74
2022/11/15 17:46:45;;;;;;;13.90;12.50;;;12.80;41.50;;;;;;10381646;28;20233;-75
2022/11/15 17:51:48;;;;;;;25.13;21.93;;;12.80;41.50;;;;;;10378002;28;20233;-75
2022/11/15 17:56:52;;;;;;;23.13;20.77;;;12.70;41.20;;;;;;10374680;28;20312;-75
2022/11/15 18:01:56;;;;;;;18.77;16.77;;;12.60;41.20;;;;;;10376435;28;20233;-75
2022/11/15 18:06:59;;;;;;;16.97;15.27;;;12.60;41.50;;;;;;10383923;28;20741;-75
2022/11/15 18:12:03;;;;;;;16.57;14.97;;;12.60;41.50;;;;;;10374458;28;20225;-74
2022/11/15 18:17:07;;;;;;;13.87;12.40;;;12.50;41.60;;;;;;10374979;28;20222;-75
2022/11/15 18:22:11;;;;;;;14.10;12.70;;;12.50;41.60;;;;;;10375490;28;20296;-75
2022/11/15 18:27:14;;;;;;;16.70;15.13;;;12.40;41.60;;;;;;10381726;28;20241;-75
2022/11/15 18:32:18;;;;;;;14.30;12.80;;;12.40;41.60;;;;;;10376539;28;20299;-75
2022/11/15 18:37:21;;;;;;;15.97;14.33;;;12.40;41.70;;;;;;10375016;28;20307;-74
2022/11/15 18:42:25;;;;;;;15.83;14.23;;;12.40;42.00;;;;;;10382132;28;20241;-74
2022/11/15 18:47:30;;;;;;;16.10;14.50;;;12.30;42.00;;;;;;10374759;28;20230;-74
2022/11/15 18:52:33;;;;;;;22.30;19.73;;;12.30;42.00;;;;;;10374389;28;20730;-74
2022/11/15 18:57:36;;;;;;;24.17;21.73;;;12.30;42.00;;;;;;10381345;28;20897;-74
2022/11/15 19:02:41;;;;;;;25.40;21.83;;;12.20;41.90;;;;;;10380619;28;20233;-74
2022/11/15 19:07:48;;;;;;;26.17;23.53;;;12.20;41.90;;;;;;10385372;28;20241;-74
2022/11/15 19:12:51;;;;;;;24.77;22.20;;;12.20;41.90;;;;;;10387238;28;20222;-74
2022/11/15 19:17:56;;;;;;;25.77;23.17;;;12.20;41.90;;;;;;10384956;28;21340;-74
2022/11/15 19:22:59;;;;;;;25.10;22.63;;;12.10;41.80;;;;;;10385445;28;20790;-74
2022/11/15 19:28:02;;;;;;;23.60;21.20;;;12.10;41.80;;;;;;10383588;28;20229;-73
2022/11/15 19:33:07;;;;;;;21.47;19.17;;;12.10;41.80;;;;;;10385217;28;20237;-73
2022/11/15 19:38:10;;;;;;;23.60;21.20;;;12.00;41.70;;;;;;10386956;28;20226;-74
2022/11/15 19:43:15;;;;;;;24.33;20.57;;;12.00;41.70;;;;;;10386979;28;20223;-74
2022/11/15 19:48:20;;;;;;;17.27;15.57;;;11.90;41.60;;;;;;10382978;28;20644;-74
2022/11/15 19:53:23;;;;;;;16.07;14.40;;;11.90;41.60;;;;;;10383301;28;20236;-74
2022/11/15 19:58:29;;;;;;;15.37;13.77;;;11.80;41.80;;;;;;10382518;28;20257;-74
2022/11/15 20:03:34;;;;;;;16.93;15.10;;;11.80;41.90;;;;;;10382529;28;20610;-74
2022/11/15 20:08:38;;;;;;;21.43;17.10;;;11.80;42.00;;;;;;10378376;28;20636;-73
2022/11/15 20:13:42;;;;;;;16.87;15.07;;;11.80;41.90;;;;;;10379455;28;20237;-74
2022/11/15 20:18:47;;;;;;;16.57;14.80;;;11.80;41.80;;;;;;10383255;28;20229;-74
2022/11/15 20:23:51;;;;;;;16.73;14.90;;;11.80;41.60;;;;;;10386558;28;20230;-74
2022/11/15 20:28:59;;;;;;;14.97;12.97;;;11.70;41.70;;;;;;10380491;28;20258;-74
2022/11/15 20:34:04;;;;;;;15.17;13.67;;;11.70;41.80;;;;;;10382285;28;20221;-74
2022/11/15 20:39:07;;;;;;;18.77;16.67;;;11.60;42.00;;;;;;10380071;28;20225;-74
2022/11/15 20:44:10;;;;;;;19.77;17.63;;;11.60;42.00;;;;;;10377902;28;20233;-74
2022/11/15 20:49:15;;;;;;;18.53;16.63;;;11.60;41.90;;;;;;10377068;28;20222;-74
2022/11/15 20:54:18;;;;;;;18.67;16.87;;;11.50;42.10;;;;;;10366417;28;20229;-74
2022/11/15 20:59:21;;;;;;;17.77;16.00;;;11.50;42.10;;;;;;10361986;28;21807;-73
2022/11/15 21:04:28;;;;;;;18.43;16.47;;;11.50;42.10;;;;;;10363910;28;20835;-74
2022/11/15 21:14:52;;;;;;;18.53;16.73;;;11.40;42.00;;;;;;10363947;28;20625;-74
2022/11/15 21:19:56;;;;;;;16.30;14.63;;;11.40;42.00;;;;;;10367365;28;20227;-74
2022/11/15 21:25:00;;;;;;;16.80;15.00;;;11.30;42.20;;;;;;10372312;28;20225;-74
2022/11/15 21:30:03;;;;;;;15.70;14.10;;;11.20;42.10;;;;;;10376421;28;20230;-73
2022/11/15 21:35:08;;;;;;;14.97;13.47;;;11.20;42.10;;;;;;10380652;28;20603;-74
2022/11/15 21:40:12;;;;;;;16.13;14.53;;;11.20;42.20;;;;;;10380464;28;20221;-74
2022/11/15 21:45:15;;;;;;;17.33;14.07;;;11.20;42.20;;;;;;10380252;28;20233;-74
2022/11/15 21:50:20;;;;;;;14.27;12.97;;;11.20;42.10;;;;;;10379223;28;20226;-75
2022/11/15 21:55:23;;;;;;;12.67;11.37;;;11.10;42.20;;;;;;10379310;28;20242;-74
2022/11/15 22:05:48;;;;;;;14.27;12.80;;;11.10;42.20;;;;;;10380259;28;20656;-74
2022/11/15 22:10:52;;;;;;;13.87;12.43;;;11.10;42.30;;;;;;10382774;28;20229;-74
2022/11/15 22:15:55;;;;;;;12.47;11.27;;;11.00;42.10;;;;;;10408741;28;20238;-74
2022/11/15 22:21:02;;;;;;;13.60;12.10;;;11.00;42.30;;;;;;10377704;28;20228;-74
2022/11/15 22:26:06;;;;;;;13.13;11.83;;;11.00;42.30;;;;;;10379785;28;20226;-73
2022/11/15 22:31:10;;;;;;;13.43;12.13;;;11.00;42.20;;;;;;10378104;28;20234;-73
2022/11/15 22:36:15;;;;;;;11.73;10.53;;;10.90;42.10;;;;;;10378618;28;20226;-73
2022/11/15 22:41:18;;;;;;;13.80;12.40;;;10.90;42.30;;;;;;10381029;28;20232;-74
2022/11/15 22:46:21;;;;;;;14.17;12.77;;;10.90;42.30;;;;;;10381254;28;20758;-74
2022/11/15 22:51:26;;;;;;;13.67;12.37;;;10.90;42.20;;;;;;10377755;28;20605;-74
2022/11/15 22:56:29;;;;;;;17.23;14.80;;;10.80;42.00;;;;;;10378331;28;20751;-74
2022/11/15 23:01:34;;;;;;;14.40;12.97;;;10.80;41.90;;;;;;10381763;28;20593;-74
2022/11/15 23:06:39;;;;;;;15.93;14.30;;;10.70;41.90;;;;;;10378215;28;20241;-74
2022/11/15 23:17:03;;;;;;;13.70;12.30;;;10.60;41.90;;;;;;10379533;28;20225;-73
2022/11/15 23:27:28;;;;;;;11.80;10.50;;;10.50;41.70;;;;;;10375872;28;20695;-74
2022/11/15 23:37:53;;;;;;;12.20;11.00;;;10.30;41.30;;;;;;10375448;28;20234;-73
2022/11/15 23:42:58;;;;;;;13.17;11.77;;;10.20;41.80;;;;;;10376775;28;20233;-74
2022/11/15 23:48:01;;;;;;;14.03;12.00;;;10.10;41.90;;;;;;10377727;28;20217;-74
2022/11/15 23:53:06;;;;;;;12.87;11.57;;;10.10;42.00;;;;;;10376675;28;20230;-73
2022/11/15 23:58:09;;;;;;;13.03;11.73;;;10.10;42.10;;;;;;10387127;28;20237;-74
